createdAt,value
2023-03-29T00:02:04.652Z,95199.63
2023-03-29T00:04:31.612Z,95242.56
2023-03-29T00:07:04.533Z,95252.78
2023-03-29T00:09:33.267Z,95236.78
2023-03-29T00:12:01.212Z,95258.13
2023-03-29T00:14:30.775Z,95221.91
2023-03-29T00:16:59.117Z,95228.91
2023-03-29T00:19:26.363Z,95283.53
2023-03-29T00:21:53.295Z,95274.88
2023-03-29T00:24:21.481Z,95287.13
2023-03-29T00:26:48.617Z,95344.13
2023-03-29T00:29:16.093Z,95329.03
2023-03-29T00:31:45.936Z,95380.31
2023-03-29T00:34:13.357Z,95365.97
2023-03-29T00:36:40.610Z,95407.00
2023-03-29T00:39:07.684Z,95366.56
2023-03-29T00:41:34.805Z,95316.66
2023-03-29T00:44:04.187Z,95324.09
2023-03-29T00:46:31.566Z,95324.47
2023-03-29T00:49:15.999Z,95288.00
2023-03-29T00:51:43.731Z,95334.94
2023-03-29T00:54:15.223Z,95290.38
2023-03-29T00:56:46.571Z,95316.06
2023-03-29T00:59:23.365Z,95309.72
2023-03-29T01:01:54.359Z,95307.03
2023-03-29T01:04:36.402Z,95296.47
2023-03-29T01:07:13.648Z,95311.59
2023-03-29T01:09:45.348Z,95323.63
2023-03-29T01:12:18.436Z,95333.13
2023-03-29T01:14:51.808Z,95319.06
2023-03-29T01:17:22.281Z,95308.03
2023-03-29T01:19:58.362Z,95308.06
2023-03-29T01:22:40.124Z,95298.34
2023-03-29T01:25:15.667Z,95318.91
2023-03-29T01:27:51.730Z,95289.28
2023-03-29T01:30:42.775Z,95287.13
2023-03-29T01:33:24.061Z,95278.34
2023-03-29T01:36:03.562Z,95276.59
2023-03-29T01:38:48.685Z,95276.34
2023-03-29T01:41:15.824Z,95261.16
2023-03-29T01:44:00.510Z,95255.56
2023-03-29T01:46:43.970Z,95236.75
2023-03-29T01:49:24.372Z,95242.22
2023-03-29T01:52:03.708Z,95240.06
2023-03-29T01:54:44.601Z,95262.06
2023-03-29T01:57:14.468Z,95237.56
2023-03-29T01:59:44.639Z,95217.66
2023-03-29T02:02:14.956Z,95190.34
2023-03-29T02:04:50.167Z,95197.22
2023-03-29T02:07:21.148Z,95193.53
2023-03-29T02:09:52.753Z,95183.38
2023-03-29T02:12:20.839Z,95186.03
2023-03-29T02:14:47.579Z,95177.56
2023-03-29T02:17:19.112Z,95174.22
2023-03-29T02:19:50.209Z,95175.28
2023-03-29T02:22:25.244Z,95176.41
2023-03-29T02:24:59.282Z,95175.81
2023-03-29T02:27:30.052Z,95167.25
2023-03-29T02:29:58.322Z,95150.28
2023-03-29T02:32:42.253Z,95147.66
2023-03-29T02:35:22.002Z,95143.84
2023-03-29T02:37:54.478Z,95140.00
2023-03-29T02:40:23.998Z,95133.03
2023-03-29T02:42:50.880Z,95124.50
2023-03-29T02:45:18.815Z,95113.31
2023-03-29T02:47:51.994Z,95107.91
2023-03-29T02:50:20.395Z,95106.38
2023-03-29T02:52:59.288Z,95101.81
2023-03-29T02:55:34.545Z,95103.94
2023-03-29T02:58:10.380Z,95095.47
2023-03-29T03:00:48.675Z,95093.25
2023-03-29T03:03:15.753Z,95099.75
2023-03-29T03:05:45.080Z,95099.34
2023-03-29T03:08:14.447Z,95093.03
2023-03-29T03:10:41.337Z,95091.22
2023-03-29T03:13:08.541Z,95102.13
2023-03-29T03:15:41.134Z,95093.78
2023-03-29T03:18:09.716Z,95100.91
2023-03-29T03:20:36.614Z,95102.13
2023-03-29T03:23:03.496Z,95102.09
2023-03-29T03:25:31.749Z,95096.84
2023-03-29T03:27:58.906Z,95098.31
2023-03-29T03:30:25.686Z,95097.19
2023-03-29T03:33:17.332Z,95094.09
2023-03-29T03:36:06.435Z,95094.69
2023-03-29T03:38:36.392Z,95087.00
2023-03-29T03:41:05.579Z,95089.75
2023-03-29T03:43:34.343Z,95071.50
2023-03-29T03:46:02.063Z,95076.13
2023-03-29T03:48:30.139Z,95075.91
2023-03-29T03:51:17.118Z,95071.34
2023-03-29T03:53:44.824Z,95059.09
2023-03-29T03:56:14.939Z,95046.25
2023-03-29T03:59:00.310Z,95049.50
2023-03-29T04:01:30.197Z,95050.91
2023-03-29T04:04:08.386Z,95041.06
2023-03-29T04:06:35.321Z,95041.31
2023-03-29T04:09:23.369Z,95040.13
2023-03-29T04:12:03.820Z,95040.69
2023-03-29T04:14:31.915Z,95028.13
2023-03-29T04:17:11.251Z,95010.69
2023-03-29T04:19:48.858Z,95016.88
2023-03-29T04:22:15.931Z,95016.09
2023-03-29T04:24:43.397Z,95032.72
2023-03-29T04:27:46.398Z,95017.59
2023-03-29T04:30:42.588Z,95017.03
2023-03-29T04:33:15.383Z,95011.38
2023-03-29T04:35:47.096Z,95020.47
2023-03-29T04:38:17.008Z,95006.59
2023-03-29T04:40:46.098Z,94994.28
2023-03-29T04:43:26.887Z,95005.44
2023-03-29T04:46:07.872Z,94998.78
2023-03-29T04:48:58.138Z,94995.31
2023-03-29T04:51:34.165Z,94998.66
2023-03-29T04:54:01.249Z,95006.63
2023-03-29T04:56:28.324Z,95015.13
2023-03-29T04:59:21.382Z,95021.19
2023-03-29T05:01:48.528Z,95010.81
2023-03-29T05:04:15.779Z,95009.59
2023-03-29T05:06:55.821Z,95015.41
2023-03-29T05:09:22.634Z,95026.78
2023-03-29T05:11:51.580Z,95026.84
2023-03-29T05:14:20.711Z,95031.59
2023-03-29T05:16:48.203Z,95020.13
2023-03-29T05:19:15.572Z,95008.06
2023-03-29T05:21:46.264Z,95001.28
2023-03-29T05:24:17.405Z,95017.34
2023-03-29T05:27:06.684Z,95012.03
2023-03-29T05:29:36.785Z,95017.91
2023-03-29T05:32:23.127Z,95009.38
2023-03-29T05:34:50.407Z,95017.41
2023-03-29T05:37:17.898Z,95017.41
2023-03-29T05:40:05.638Z,95033.06
2023-03-29T05:42:38.906Z,95032.25
2023-03-29T05:45:09.104Z,95031.84
2023-03-29T05:47:36.219Z,95027.78
2023-03-29T05:50:04.005Z,95032.44
2023-03-29T05:52:31.617Z,95037.75
2023-03-29T05:54:58.365Z,95036.13
2023-03-29T05:57:26.104Z,95029.84
2023-03-29T05:59:53.405Z,95037.28
2023-03-29T06:02:21.511Z,95026.66
2023-03-29T06:04:52.210Z,95032.38
2023-03-29T06:07:25.531Z,95022.66
2023-03-29T06:10:11.220Z,95026.47
2023-03-29T06:12:41.928Z,95032.25
2023-03-29T06:15:10.230Z,95029.28
2023-03-29T06:17:51.718Z,95025.31
2023-03-29T06:20:19.108Z,95026.63
2023-03-29T06:22:52.589Z,95034.94
2023-03-29T06:25:19.904Z,95033.38
2023-03-29T06:27:49.209Z,95031.78
2023-03-29T06:30:19.022Z,95034.53
2023-03-29T06:32:50.554Z,95040.91
2023-03-29T06:35:37.954Z,95037.53
2023-03-29T06:38:08.361Z,95040.97
2023-03-29T06:41:11.158Z,95051.34
2023-03-29T06:44:10.796Z,95043.75
2023-03-29T06:46:57.751Z,95044.06
2023-03-29T06:49:24.788Z,95049.41
2023-03-29T06:52:20.792Z,95057.31
2023-03-29T06:54:47.817Z,95059.72
2023-03-29T06:57:14.884Z,95052.38
2023-03-29T06:59:42.397Z,95045.47
2023-03-29T07:02:34.627Z,95056.38
2023-03-29T07:05:13.503Z,95056.72
2023-03-29T07:07:59.851Z,95060.25
2023-03-29T07:10:45.889Z,95055.84
2023-03-29T07:13:33.257Z,95055.47
2023-03-29T07:16:03.967Z,95051.44
2023-03-29T07:18:48.611Z,95056.00
2023-03-29T07:21:41.456Z,95060.22
2023-03-29T07:24:10.267Z,95042.59
2023-03-29T07:26:38.004Z,95062.31
2023-03-29T07:29:06.362Z,95062.63
2023-03-29T07:31:35.791Z,95059.69
2023-03-29T07:34:27.193Z,95057.75
2023-03-29T07:36:54.966Z,95064.09
2023-03-29T07:39:22.548Z,95059.78
2023-03-29T07:42:09.294Z,95059.53
2023-03-29T07:44:36.002Z,95066.78
2023-03-29T07:47:04.774Z,95073.53
2023-03-29T07:49:32.614Z,95060.13
2023-03-29T07:52:00.310Z,95065.69
2023-03-29T07:54:27.164Z,95081.69
2023-03-29T07:57:08.918Z,95067.78
2023-03-29T07:59:41.757Z,95087.03
2023-03-29T08:02:12.792Z,95072.97
2023-03-29T08:04:47.740Z,95073.69
2023-03-29T08:07:21.789Z,95064.38
2023-03-29T08:10:12.457Z,95067.00
2023-03-29T08:13:01.341Z,95067.94
2023-03-29T08:15:39.192Z,95071.63
2023-03-29T08:18:09.822Z,95063.88
2023-03-29T08:20:37.140Z,95058.88
2023-03-29T08:23:04.257Z,95070.88
2023-03-29T08:25:59.456Z,95067.97
2023-03-29T08:28:26.718Z,95071.56
2023-03-29T08:30:54.564Z,95075.09
2023-03-29T08:33:22.263Z,95069.75
2023-03-29T08:35:58.205Z,95072.09
2023-03-29T08:38:29.270Z,95087.00
2023-03-29T08:40:56.784Z,95077.66
2023-03-29T08:43:37.788Z,95080.06
2023-03-29T08:46:36.653Z,95078.50
2023-03-29T08:49:19.991Z,95079.06
2023-03-29T08:51:58.405Z,95085.34
2023-03-29T08:54:29.892Z,95090.94
2023-03-29T08:57:25.919Z,95080.00
2023-03-29T09:00:01.216Z,95096.84
2023-03-29T09:02:34.030Z,95101.28
2023-03-29T09:05:27.247Z,95076.16
2023-03-29T09:08:17.927Z,95092.06
2023-03-29T09:11:18.054Z,95079.84
2023-03-29T09:14:06.142Z,95071.63
2023-03-29T09:16:38.065Z,95069.00
2023-03-29T09:19:50.852Z,95079.28
2023-03-29T09:22:33.307Z,95063.69
2023-03-29T09:25:41.044Z,95077.91
2023-03-29T09:28:23.704Z,95070.75
2023-03-29T09:31:04.101Z,95064.75
2023-03-29T09:33:45.515Z,95083.56
2023-03-29T09:36:42.231Z,95056.94
2023-03-29T09:39:13.254Z,95062.44
2023-03-29T09:41:50.480Z,95070.13
2023-03-29T09:44:30.701Z,95074.16
2023-03-29T09:47:24.852Z,95068.16
2023-03-29T09:49:57.844Z,95093.72
2023-03-29T09:52:25.487Z,95055.19
2023-03-29T09:55:06.209Z,95046.97
2023-03-29T09:57:45.400Z,95067.94
2023-03-29T10:00:14.829Z,95067.44
2023-03-29T10:02:42.304Z,95042.28
2023-03-29T10:05:16.802Z,95054.38
2023-03-29T10:07:48.971Z,95052.03
2023-03-29T10:10:27.902Z,95048.25
2023-03-29T10:13:00.653Z,95068.88
2023-03-29T10:15:30.802Z,95050.03
2023-03-29T10:18:05.684Z,95083.09
2023-03-29T10:20:37.721Z,95038.34
2023-03-29T10:23:09.405Z,95042.75
2023-03-29T10:25:42.977Z,95029.69
2023-03-29T10:28:21.555Z,95056.13
2023-03-29T10:30:55.273Z,95027.75
2023-03-29T10:33:24.760Z,95003.53
2023-03-29T10:35:52.072Z,95035.69
2023-03-29T10:38:22.856Z,95024.47
2023-03-29T10:40:51.872Z,95026.78
2023-03-29T10:43:38.589Z,95033.41
2023-03-29T10:46:11.575Z,95024.50
2023-03-29T10:48:39.252Z,95030.69
2023-03-29T10:51:07.636Z,95035.84
2023-03-29T10:53:38.061Z,95017.97
2023-03-29T10:56:23.343Z,95021.97
2023-03-29T10:58:52.903Z,95036.53
2023-03-29T11:01:37.483Z,95019.13
2023-03-29T11:04:19.039Z,95076.16
2023-03-29T11:06:45.759Z,95056.50
2023-03-29T11:09:47.412Z,95038.78
2023-03-29T11:12:16.111Z,95006.53
2023-03-29T11:15:16.338Z,95034.03
2023-03-29T11:17:51.053Z,95006.09
2023-03-29T11:20:36.822Z,95010.75
2023-03-29T11:23:13.110Z,95040.53
2023-03-29T11:26:04.276Z,95111.53
2023-03-29T11:28:36.034Z,95040.88
2023-03-29T11:31:28.789Z,95107.72
2023-03-29T11:34:04.702Z,95040.66
2023-03-29T11:36:58.796Z,95019.16
2023-03-29T11:39:54.756Z,95017.44
2023-03-29T11:42:28.675Z,95063.00
2023-03-29T11:44:58.685Z,95090.00
2023-03-29T11:47:46.653Z,95074.03
2023-03-29T11:50:25.764Z,95048.69
2023-03-29T11:52:59.200Z,95047.06
2023-03-29T11:55:38.690Z,95036.25
2023-03-29T11:58:15.850Z,95055.94
2023-03-29T12:00:52.017Z,95045.94
2023-03-29T12:03:41.427Z,95031.22
2023-03-29T12:06:21.634Z,95065.25
2023-03-29T12:08:56.851Z,95030.63
2023-03-29T12:11:33.663Z,95038.31
2023-03-29T12:14:24.055Z,95049.28
2023-03-29T12:17:05.661Z,95043.03
2023-03-29T12:19:50.466Z,95078.78
2023-03-29T12:22:17.248Z,94986.88
2023-03-29T12:24:48.695Z,94979.56
2023-03-29T12:27:20.670Z,95026.06
2023-03-29T12:30:09.000Z,94992.44
2023-03-29T12:32:38.775Z,95011.81
2023-03-29T12:35:31.203Z,95014.09
2023-03-29T12:38:22.372Z,94956.44
2023-03-29T12:41:37.152Z,94966.09
2023-03-29T12:44:24.022Z,94982.94
2023-03-29T12:46:59.197Z,94983.06
2023-03-29T12:49:38.579Z,94972.75
2023-03-29T12:52:37.263Z,94991.03
2023-03-29T12:55:18.105Z,94993.44
2023-03-29T12:58:01.363Z,94988.53
2023-03-29T13:00:44.991Z,94963.31
2023-03-29T13:03:27.221Z,94932.75
2023-03-29T13:06:06.345Z,94942.13
2023-03-29T13:08:42.724Z,94952.94
2023-03-29T13:11:28.291Z,94967.16
2023-03-29T13:13:55.764Z,94950.59
2023-03-29T13:16:31.450Z,94968.88
2023-03-29T13:19:07.208Z,94949.84
2023-03-29T13:21:37.649Z,94978.09
2023-03-29T13:24:34.580Z,94945.59
2023-03-29T13:27:37.304Z,94955.78
2023-03-29T13:30:26.699Z,94925.16
2023-03-29T13:33:14.735Z,94944.72
2023-03-29T13:36:00.507Z,94942.91
2023-03-29T13:38:32.149Z,95002.19
2023-03-29T13:41:07.365Z,94986.38
2023-03-29T13:43:49.769Z,94965.38
2023-03-29T13:46:22.558Z,94993.34
2023-03-29T13:48:54.993Z,94986.44
2023-03-29T13:51:31.793Z,94990.66
2023-03-29T13:54:08.203Z,95001.88
2023-03-29T13:56:43.668Z,95011.34
2023-03-29T13:59:19.682Z,94995.09
2023-03-29T14:01:57.976Z,94968.34
2023-03-29T14:04:28.685Z,94960.81
2023-03-29T14:06:56.828Z,94947.13
2023-03-29T14:09:30.125Z,94946.59
2023-03-29T14:11:58.902Z,94920.81
2023-03-29T14:14:27.088Z,94936.38
2023-03-29T14:16:56.562Z,94918.38
2023-03-29T14:19:37.904Z,94946.53
2023-03-29T14:22:13.028Z,94887.38
2023-03-29T14:24:48.140Z,94897.28
2023-03-29T14:27:16.335Z,94893.38
2023-03-29T14:29:46.944Z,94887.25
2023-03-29T14:32:17.012Z,94890.91
2023-03-29T14:34:48.401Z,94893.38
2023-03-29T14:37:23.023Z,94888.06
2023-03-29T14:39:51.198Z,94907.97
2023-03-29T14:42:23.995Z,94932.06
2023-03-29T14:44:51.238Z,94914.38
2023-03-29T14:47:30.409Z,94896.22
2023-03-29T14:50:00.978Z,94915.44
2023-03-29T14:52:30.489Z,94874.69
2023-03-29T14:55:01.992Z,94879.59
2023-03-29T14:57:35.803Z,94873.94
2023-03-29T15:00:17.359Z,94872.47
2023-03-29T15:03:02.447Z,94861.59
2023-03-29T15:05:32.779Z,94849.63
2023-03-29T15:08:01.829Z,94849.81
2023-03-29T15:10:32.331Z,94862.72
2023-03-29T15:13:02.309Z,94867.34
2023-03-29T15:15:31.666Z,94864.59
2023-03-29T15:20:33.589Z,94855.41
2023-03-29T15:23:22.010Z,94872.75
2023-03-29T15:26:06.827Z,94843.59
2023-03-29T15:28:35.893Z,94825.19
2023-03-29T15:31:10.719Z,94806.97
2023-03-29T15:33:39.802Z,94835.25
2023-03-29T15:36:09.698Z,94827.53
2023-03-29T15:38:43.854Z,94743.56
2023-03-29T15:41:11.734Z,94842.16
2023-03-29T15:43:38.524Z,94904.75
2023-03-29T15:46:05.938Z,94926.63
2023-03-29T15:48:33.886Z,94937.78
2023-03-29T15:51:05.462Z,94945.19
2023-03-29T15:53:33.091Z,94939.78
2023-03-29T15:56:02.232Z,94927.78
2023-03-29T15:58:32.472Z,94905.19
2023-03-29T16:01:11.545Z,94906.47
2023-03-29T16:03:39.894Z,94895.00
2023-03-29T16:06:10.225Z,94890.63
2023-03-29T16:08:37.320Z,94877.22
2023-03-29T16:11:05.299Z,94872.00
2023-03-29T16:13:32.782Z,94859.91
2023-03-29T16:15:59.523Z,94857.97
2023-03-29T16:18:26.483Z,94861.50
2023-03-29T16:20:53.158Z,94866.00
2023-03-29T16:23:19.881Z,94873.25
2023-03-29T16:25:46.928Z,94883.09
2023-03-29T16:28:13.714Z,94874.28
2023-03-29T16:30:40.626Z,94887.19
2023-03-29T16:33:08.653Z,94890.03
2023-03-29T16:35:40.191Z,94898.72
2023-03-29T16:38:07.863Z,94906.28
2023-03-29T16:40:35.662Z,94901.88
2023-03-29T16:43:03.006Z,94903.06
2023-03-29T16:45:29.752Z,94902.84
2023-03-29T16:47:57.253Z,94894.38
2023-03-29T16:50:24.288Z,94904.69
2023-03-29T16:52:54.309Z,94886.91
2023-03-29T16:55:21.434Z,94876.41
2023-03-29T16:57:48.964Z,94880.00
2023-03-29T17:00:19.641Z,94862.13
2023-03-29T17:02:49.780Z,94847.06
2023-03-29T17:05:18.458Z,94835.69
2023-03-29T17:07:46.162Z,94836.28
2023-03-29T17:10:14.113Z,94849.78
2023-03-29T17:12:41.042Z,94847.00
2023-03-29T17:15:08.268Z,94844.91
2023-03-29T17:17:35.853Z,94849.50
2023-03-29T17:20:02.611Z,94837.19
2023-03-29T17:22:29.283Z,94834.91
2023-03-29T17:24:56.025Z,94837.78
2023-03-29T17:27:23.206Z,94853.75
2023-03-29T17:29:49.961Z,94859.53
2023-03-29T17:32:17.061Z,94862.75
2023-03-29T17:34:43.782Z,94859.97
2023-03-29T17:37:10.836Z,94871.03
2023-03-29T17:39:37.964Z,94864.81
2023-03-29T17:42:06.818Z,94868.00
2023-03-29T17:44:33.669Z,94860.03
2023-03-29T17:47:01.201Z,94861.69
2023-03-29T17:49:28.094Z,94856.72
2023-03-29T17:51:55.153Z,94864.09
2023-03-29T17:54:22.247Z,94862.06
2023-03-29T17:56:49.148Z,94853.91
2023-03-29T17:59:16.475Z,94844.31
2023-03-29T18:01:43.594Z,94855.78
2023-03-29T18:04:10.544Z,94855.28
2023-03-29T18:06:37.995Z,94873.59
2023-03-29T18:09:05.664Z,94864.00
2023-03-29T18:11:32.640Z,94865.94
2023-03-29T18:14:01.105Z,94867.59
2023-03-29T18:16:28.410Z,94879.84
2023-03-29T18:18:55.294Z,94878.81
2023-03-29T18:21:22.478Z,94889.28
2023-03-29T18:23:54.365Z,94879.78
2023-03-29T18:26:23.276Z,94881.28
2023-03-29T18:28:50.985Z,94879.06
2023-03-29T18:31:19.962Z,94872.38
2023-03-29T18:33:47.686Z,94870.66
2023-03-29T18:36:15.006Z,94864.19
2023-03-29T18:38:43.312Z,94865.22
2023-03-29T18:41:12.423Z,94866.41
2023-03-29T18:43:40.676Z,94862.50
2023-03-29T18:46:08.481Z,94862.66
2023-03-29T18:48:39.038Z,94860.38
2023-03-29T18:51:07.749Z,94855.41
2023-03-29T18:53:36.126Z,94853.78
2023-03-29T18:56:04.496Z,94860.13
2023-03-29T18:58:31.711Z,94861.44
2023-03-29T19:01:03.722Z,94875.06
2023-03-29T19:03:31.903Z,94867.44
2023-03-29T19:05:58.804Z,94858.34
2023-03-29T19:08:26.514Z,94861.22
2023-03-29T19:11:01.375Z,94866.38
2023-03-29T19:13:28.203Z,94864.63
2023-03-29T19:15:55.047Z,94868.78
2023-03-29T19:18:22.185Z,94879.94
2023-03-29T19:20:51.328Z,94878.81
2023-03-29T19:23:18.519Z,94874.19
2023-03-29T19:26:05.539Z,94875.97
2023-03-29T19:28:33.801Z,94868.81
2023-03-29T19:31:02.342Z,94877.25
2023-03-29T19:33:29.697Z,94871.59
2023-03-29T19:35:56.878Z,94859.34
2023-03-29T19:38:24.610Z,94860.97
2023-03-29T19:40:51.861Z,94855.44
2023-03-29T19:43:20.714Z,94854.03
2023-03-29T19:45:49.711Z,94860.84
2023-03-29T19:50:47.253Z,94848.44
2023-03-29T19:53:14.104Z,94854.56
2023-03-29T19:55:42.544Z,94849.22
2023-03-29T19:58:09.821Z,94845.47
2023-03-29T20:00:38.840Z,94858.94
2023-03-29T20:03:09.467Z,94854.66
2023-03-29T20:05:37.638Z,94858.56
2023-03-29T20:08:04.924Z,94862.66
2023-03-29T20:10:31.639Z,94863.28
2023-03-29T20:12:58.448Z,94863.03
2023-03-29T20:15:26.167Z,94864.09
2023-03-29T20:17:57.046Z,94863.75
2023-03-29T20:20:25.543Z,94873.97
2023-03-29T20:22:58.087Z,94868.38
2023-03-29T20:25:25.846Z,94874.84
2023-03-29T20:27:53.637Z,94868.22
2023-03-29T20:30:20.657Z,94863.06
2023-03-29T20:32:47.709Z,94879.31
2023-03-29T20:35:14.525Z,94874.84
2023-03-29T20:37:41.667Z,94870.16
2023-03-29T20:40:11.406Z,94854.72
2023-03-29T20:42:38.941Z,94850.53
2023-03-29T20:45:06.580Z,94850.94
2023-03-29T20:47:34.492Z,94853.91
2023-03-29T20:50:01.810Z,94841.31
2023-03-29T20:52:28.530Z,94839.75
2023-03-29T20:54:55.396Z,94839.25
2023-03-29T20:57:22.313Z,94830.59
2023-03-29T20:59:49.445Z,94834.88
2023-03-29T21:02:21.766Z,94836.06
2023-03-29T21:04:53.835Z,94823.22
2023-03-29T21:07:21.754Z,94821.69
2023-03-29T21:09:50.014Z,94828.03
2023-03-29T21:12:17.470Z,94828.38
2023-03-29T21:14:44.846Z,94809.97
2023-03-29T21:17:11.909Z,94818.38
2023-03-29T21:19:39.885Z,94815.59
2023-03-29T21:22:06.960Z,94800.69
2023-03-29T21:24:34.218Z,94803.00
2023-03-29T21:27:01.033Z,94804.72
2023-03-29T21:29:28.389Z,94795.13
2023-03-29T21:31:55.903Z,94782.84
2023-03-29T21:34:22.843Z,94784.22
2023-03-29T21:36:50.034Z,94780.25
2023-03-29T21:39:16.956Z,94787.88
2023-03-29T21:41:43.838Z,94781.84
2023-03-29T21:44:11.181Z,94778.59
2023-03-29T21:46:38.505Z,94784.94
2023-03-29T21:49:05.810Z,94777.06
2023-03-29T21:51:32.971Z,94777.88
2023-03-29T21:53:59.730Z,94771.94
2023-03-29T21:56:26.497Z,94768.31
2023-03-29T21:58:53.633Z,94767.56
2023-03-29T22:01:20.775Z,94751.22
2023-03-29T22:03:47.660Z,94763.78
2023-03-29T22:06:14.520Z,94763.34
2023-03-29T22:08:41.300Z,94752.97
2023-03-29T22:11:11.489Z,94750.22
2023-03-29T22:13:39.465Z,94758.13
2023-03-29T22:16:18.555Z,94759.28
2023-03-29T22:18:49.701Z,94765.66
2023-03-29T22:21:20.321Z,94753.28
2023-03-29T22:23:49.827Z,94755.84
2023-03-29T22:26:18.675Z,94751.88
2023-03-29T22:28:45.900Z,94756.47
2023-03-29T22:31:15.093Z,94756.72
2023-03-29T22:33:42.771Z,94764.69
2023-03-29T22:36:17.283Z,94760.88
2023-03-29T22:38:45.438Z,94769.38
2023-03-29T22:41:14.109Z,94763.28
2023-03-29T22:43:41.430Z,94756.88
2023-03-29T22:46:10.272Z,94758.50
2023-03-29T22:48:37.235Z,94749.03
2023-03-29T22:51:05.550Z,94737.41
2023-03-29T22:53:34.498Z,94742.66
2023-03-29T22:56:01.409Z,94737.44
2023-03-29T22:58:29.461Z,94738.00
2023-03-29T23:00:57.858Z,94727.81
2023-03-29T23:03:25.300Z,94723.28
2023-03-29T23:05:57.941Z,94725.16
2023-03-29T23:08:26.327Z,94723.19
2023-03-29T23:10:53.256Z,94731.94
2023-03-29T23:13:24.558Z,94729.09
2023-03-29T23:15:54.493Z,94722.13
2023-03-29T23:18:23.597Z,94730.16
2023-03-29T23:20:52.573Z,94724.56
2023-03-29T23:23:20.373Z,94725.03
2023-03-29T23:25:49.318Z,94730.16
2023-03-29T23:28:21.843Z,94730.75
2023-03-29T23:31:00.613Z,94704.66
2023-03-29T23:33:33.655Z,94708.03
2023-03-29T23:36:07.467Z,94705.28
2023-03-29T23:38:36.581Z,94699.97
2023-03-29T23:41:06.551Z,94701.03
2023-03-29T23:43:37.315Z,94699.47
2023-03-29T23:46:08.604Z,94693.19
2023-03-29T23:48:35.682Z,94694.66
2023-03-29T23:51:03.558Z,94684.41
2023-03-29T23:53:31.502Z,94679.91
2023-03-29T23:56:03.202Z,94675.13
2023-03-29T23:58:36.081Z,94675.03
